createdAt,value
2023-02-04T09:41:51.497Z,17.90
2023-02-04T09:44:24.578Z,18.40
2023-02-04T09:46:56.141Z,15.70
2023-02-04T09:49:26.760Z,14.10
2023-02-04T09:51:56.598Z,14.30
2023-02-04T09:54:25.875Z,14.20
2023-02-04T09:56:54.667Z,13.40
2023-02-04T09:59:24.594Z,13.80
2023-02-04T10:02:06.173Z,13.70
2023-02-04T10:04:34.747Z,25.90
2023-02-04T10:07:04.250Z,14.90
2023-02-04T10:09:32.933Z,14.00
2023-02-04T10:12:01.618Z,27.80
2023-02-04T10:14:30.711Z,21.20
2023-02-04T10:17:01.575Z,21.90
2023-02-04T10:19:31.985Z,17.30
2023-02-04T10:22:01.169Z,20.80
2023-02-04T10:24:30.921Z,32.70
2023-02-04T10:27:10.716Z,18.60
2023-02-04T10:29:40.550Z,20.70
2023-02-04T10:32:29.130Z,20.60
2023-02-04T10:35:00.615Z,15.70
2023-02-04T10:37:31.076Z,12.80
2023-02-04T10:39:59.762Z,18.20
2023-02-04T10:42:30.315Z,13.50
2023-02-04T10:44:59.588Z,11.90
2023-02-04T10:47:31.704Z,10.20
2023-02-04T10:50:05.155Z,11.10
2023-02-04T10:52:41.416Z,12.60
2023-02-04T10:55:20.048Z,12.20
2023-02-04T10:57:52.000Z,24.30
2023-02-04T11:00:22.688Z,31.20
2023-02-04T11:03:27.688Z,16.90
2023-02-04T11:06:01.008Z,13.40
2023-02-04T11:08:37.579Z,16.80
2023-02-04T11:11:10.416Z,14.10
2023-02-04T11:13:43.096Z,11.90
2023-02-04T11:16:23.664Z,11.20
2023-02-04T11:19:01.250Z,11.50
2023-02-04T11:21:33.135Z,12.00
2023-02-04T11:24:06.517Z,10.90
2023-02-04T11:26:38.220Z,12.00
2023-02-04T11:29:06.696Z,10.10
2023-02-04T11:31:35.225Z,9.90
2023-02-04T11:34:24.298Z,8.80
2023-02-04T11:37:08.433Z,10.30
2023-02-04T11:39:45.778Z,11.90
2023-02-04T11:42:42.370Z,11.20
2023-02-04T11:45:20.569Z,9.70
2023-02-04T11:47:50.893Z,9.30
2023-02-04T11:52:47.855Z,10.00
2023-02-04T11:55:17.265Z,9.10
2023-02-04T11:57:46.148Z,9.60
2023-02-04T12:00:21.202Z,10.70
2023-02-04T12:03:02.708Z,10.80
2023-02-04T12:05:43.858Z,10.30
2023-02-04T12:08:24.543Z,9.20
2023-02-04T12:10:59.559Z,11.20
2023-02-04T12:13:30.812Z,9.60
2023-02-04T12:16:04.044Z,10.10
2023-02-04T12:18:34.755Z,12.00
2023-02-04T12:21:04.702Z,11.70
2023-02-04T12:26:02.327Z,10.90
2023-02-04T12:28:32.330Z,10.30
2023-02-04T12:31:01.370Z,12.90
2023-02-04T12:33:30.413Z,12.20
2023-02-04T12:35:58.897Z,12.10
2023-02-04T12:38:28.616Z,11.90
2023-02-04T12:40:57.192Z,10.20
2023-02-04T12:43:28.367Z,11.00
2023-02-04T12:45:57.115Z,10.00
2023-02-04T12:48:26.324Z,9.80
2023-02-04T12:50:55.105Z,10.60
2023-02-04T12:53:23.992Z,10.00
2023-02-04T12:55:52.576Z,9.60
2023-02-04T12:58:21.359Z,11.60
2023-02-04T13:00:50.161Z,11.40
2023-02-04T13:03:19.452Z,10.90
2023-02-04T13:05:48.032Z,15.50
2023-02-04T13:08:17.046Z,15.00
2023-02-04T13:10:45.608Z,13.70
2023-02-04T13:13:14.089Z,11.40
2023-02-04T13:15:42.678Z,12.00
2023-02-04T13:18:11.197Z,11.10
2023-02-04T13:20:39.837Z,11.40
2023-02-04T13:23:08.630Z,20.10
2023-02-04T13:25:37.311Z,19.50
2023-02-04T13:28:05.906Z,17.00
2023-02-04T13:30:34.554Z,18.90
2023-02-04T13:33:03.782Z,15.90
2023-02-04T13:35:33.211Z,14.30
2023-02-04T13:38:01.982Z,15.30
2023-02-04T13:40:30.552Z,15.50
2023-02-04T13:42:59.140Z,12.10
2023-02-04T13:45:27.668Z,16.70
2023-02-04T13:47:56.203Z,16.10
2023-02-04T13:50:24.791Z,21.40
2023-02-04T13:52:53.579Z,19.40
2023-02-04T13:55:22.567Z,16.40
2023-02-04T13:57:51.206Z,15.70
2023-02-04T14:00:20.245Z,14.60
2023-02-04T14:02:49.341Z,13.50
2023-02-04T14:05:18.333Z,11.10
2023-02-04T14:07:46.919Z,19.20
2023-02-04T14:10:18.715Z,18.10
2023-02-04T14:12:47.157Z,33.80
2023-02-04T14:15:16.042Z,22.00
2023-02-04T14:17:44.742Z,22.30
2023-02-04T14:20:13.414Z,20.70
2023-02-04T14:22:42.402Z,25.40
2023-02-04T14:25:11.293Z,21.80
2023-02-04T14:27:42.931Z,18.00
2023-02-04T14:30:18.199Z,17.70
2023-02-04T14:32:47.493Z,17.60
2023-02-04T14:35:17.041Z,16.00
2023-02-04T14:37:46.011Z,14.60
2023-02-04T14:40:16.514Z,17.90
2023-02-04T14:42:45.609Z,43.80
2023-02-04T14:45:15.624Z,35.20
2023-02-04T14:47:44.528Z,27.40
2023-02-04T14:50:17.301Z,49.80
2023-02-04T14:52:45.787Z,30.20
2023-02-04T14:55:15.520Z,25.20
2023-02-04T14:57:44.278Z,34.80
2023-02-04T15:00:13.681Z,31.40
2023-02-04T15:02:42.963Z,29.80
2023-02-04T15:05:12.188Z,19.40
2023-02-04T15:07:41.584Z,19.40
2023-02-04T15:10:13.176Z,24.20
2023-02-04T15:12:44.991Z,27.80
2023-02-04T15:15:13.473Z,21.00
2023-02-04T15:17:42.059Z,21.50
2023-02-04T15:20:11.477Z,19.70
2023-02-04T15:22:40.033Z,20.00
2023-02-04T15:25:08.931Z,18.60
2023-02-04T15:27:37.616Z,14.90
2023-02-04T15:30:07.123Z,18.60
2023-02-04T15:32:35.702Z,16.20
2023-02-04T15:35:04.901Z,16.70
2023-02-04T15:37:34.302Z,16.80
2023-02-04T15:40:02.890Z,18.20
2023-02-04T15:42:31.571Z,16.10
2023-02-04T15:45:00.163Z,13.70
2023-02-04T15:47:28.792Z,16.70
2023-02-04T15:49:57.522Z,16.20
2023-02-04T15:52:27.817Z,15.80
2023-02-04T15:54:58.581Z,14.60
2023-02-04T15:57:27.481Z,18.50
2023-02-04T15:59:56.016Z,18.20
2023-02-04T16:02:30.922Z,18.80
2023-02-04T16:04:59.480Z,20.80
2023-02-04T16:07:28.159Z,26.00
2023-02-04T16:09:57.046Z,23.60
2023-02-04T16:12:25.936Z,23.40
2023-02-04T16:14:54.417Z,22.40
2023-02-04T16:17:23.410Z,21.00
2023-02-04T16:19:51.895Z,20.90
2023-02-04T16:22:20.377Z,23.90
2023-02-04T16:24:50.082Z,21.00
2023-02-04T16:27:19.487Z,19.00
2023-02-04T16:29:48.075Z,19.60
2023-02-04T16:32:16.790Z,17.80
2023-02-04T16:34:46.051Z,13.90
2023-02-04T16:37:14.532Z,18.20
2023-02-04T16:39:45.570Z,16.80
2023-02-04T16:42:14.356Z,16.80
2023-02-04T16:44:43.040Z,15.40
2023-02-04T16:47:12.135Z,15.10
2023-02-04T16:49:40.663Z,16.40
2023-02-04T16:52:09.200Z,16.10
2023-02-04T16:54:37.784Z,16.90
2023-02-04T16:57:06.469Z,14.10
2023-02-04T16:59:36.086Z,14.10
2023-02-04T17:02:04.749Z,14.30
2023-02-04T17:04:35.094Z,13.30
2023-02-04T17:07:03.876Z,14.20
2023-02-04T17:09:32.770Z,13.70
2023-02-04T17:12:01.558Z,11.90
2023-02-04T17:14:30.139Z,12.30
2023-02-04T17:16:58.722Z,10.00
2023-02-04T17:19:27.403Z,9.40
2023-02-04T17:21:56.001Z,8.30
2023-02-04T17:24:24.792Z,7.00
2023-02-04T17:26:53.459Z,7.00
2023-02-04T17:29:24.201Z,6.40
2023-02-04T17:31:53.152Z,5.60
2023-02-04T17:34:21.666Z,4.80
2023-02-04T17:36:50.155Z,4.90
2023-02-04T17:39:18.766Z,5.00
2023-02-04T17:41:47.366Z,4.00
2023-02-04T17:44:20.424Z,4.60
2023-02-04T17:46:49.002Z,4.90
2023-02-04T17:49:17.449Z,4.80
2023-02-04T17:51:45.865Z,6.30
2023-02-04T17:54:14.875Z,6.60
2023-02-04T17:56:43.337Z,6.50
2023-02-04T17:59:11.839Z,6.30
2023-02-04T18:01:42.394Z,5.30
2023-02-04T18:04:13.165Z,5.70
2023-02-04T18:06:41.952Z,4.60
2023-02-04T18:09:18.122Z,4.60
2023-02-04T18:11:46.698Z,4.30
2023-02-04T18:14:24.835Z,3.60
2023-02-04T18:16:59.914Z,4.10
2023-02-04T18:19:31.770Z,4.00
2023-02-04T18:22:00.393Z,3.90
2023-02-04T18:24:36.496Z,3.70
2023-02-04T18:27:24.576Z,3.90
2023-02-04T18:29:55.880Z,3.40
2023-02-04T18:32:29.123Z,3.40
2023-02-04T18:34:59.541Z,3.80
2023-02-04T18:37:42.881Z,3.40
2023-02-04T18:40:12.068Z,3.30
2023-02-04T18:42:46.189Z,4.10
2023-02-04T18:45:22.034Z,3.90
2023-02-04T18:47:54.210Z,3.50
2023-02-04T18:50:30.000Z,3.80
2023-02-04T18:53:13.894Z,3.50
2023-02-04T18:55:48.416Z,3.80
2023-02-04T18:58:17.144Z,3.40
2023-02-04T19:00:52.473Z,3.70
2023-02-04T19:03:42.148Z,4.20
2023-02-04T19:06:23.199Z,3.50
2023-02-04T19:08:52.090Z,4.10
2023-02-04T19:11:34.593Z,3.80
2023-02-04T19:14:18.031Z,4.00
2023-02-04T19:16:47.348Z,4.10
2023-02-04T19:19:31.061Z,3.70
2023-02-04T19:21:59.635Z,3.70
2023-02-04T19:24:29.844Z,3.10
2023-02-04T19:26:59.470Z,3.60
2023-02-04T19:29:40.259Z,3.90
2023-02-04T19:32:31.456Z,3.90
2023-02-04T19:35:13.123Z,3.60
2023-02-04T19:37:41.961Z,4.00
2023-02-04T19:40:33.729Z,3.50
2023-02-04T19:43:08.501Z,3.70
2023-02-04T19:45:37.226Z,3.40
2023-02-04T19:48:20.838Z,3.50
2023-02-04T19:50:53.042Z,3.40
2023-02-04T19:53:30.067Z,4.00
2023-02-04T19:55:58.650Z,3.60
2023-02-04T19:58:41.467Z,3.70
2023-02-04T20:01:17.740Z,3.60
2023-02-04T20:03:47.903Z,3.10
2023-02-04T20:08:55.371Z,3.40
2023-02-04T20:11:36.136Z,4.40
2023-02-04T20:14:18.636Z,4.70
2023-02-04T20:16:50.809Z,3.80
2023-02-04T20:19:22.159Z,4.00
2023-02-04T20:22:17.160Z,4.40
2023-02-04T20:24:48.211Z,4.70
2023-02-04T20:27:52.651Z,3.80
2023-02-04T20:30:31.062Z,3.90
2023-02-04T20:33:14.459Z,4.50
2023-02-04T20:35:42.898Z,6.50
2023-02-04T20:38:18.289Z,6.60
2023-02-04T20:40:47.190Z,6.30
2023-02-04T20:43:26.419Z,7.10
2023-02-04T20:46:00.566Z,6.80
2023-02-04T20:48:33.903Z,6.60
2023-02-04T20:51:04.833Z,6.20
2023-02-04T20:53:53.958Z,6.50
2023-02-04T20:56:35.543Z,4.60
2023-02-04T20:59:13.405Z,5.10
2023-02-04T21:01:46.538Z,4.70
2023-02-04T21:04:34.801Z,4.90
2023-02-04T21:07:13.770Z,6.10
2023-02-04T21:09:42.370Z,4.80
2023-02-04T21:12:11.931Z,5.60
2023-02-04T21:14:41.053Z,6.00
2023-02-04T21:17:09.746Z,5.50
2023-02-04T21:19:38.550Z,4.30
2023-02-04T21:22:07.223Z,4.80
2023-02-04T21:24:36.066Z,4.60
2023-02-04T21:27:04.696Z,3.60
2023-02-04T21:29:33.371Z,4.50
2023-02-04T21:32:02.062Z,4.50
2023-02-04T21:34:30.843Z,4.20
2023-02-04T21:36:59.428Z,4.40
2023-02-04T21:39:28.238Z,4.20
2023-02-04T21:42:10.504Z,3.50
2023-02-04T21:44:40.536Z,4.30
2023-02-04T21:47:09.335Z,4.10
2023-02-04T21:49:40.724Z,4.40
2023-02-04T21:52:10.700Z,3.40
2023-02-04T21:54:39.478Z,4.10
2023-02-04T21:57:08.283Z,4.20
2023-02-04T21:59:37.259Z,3.60
2023-02-04T22:02:06.361Z,3.50
2023-02-04T22:04:34.958Z,3.60
2023-02-04T22:07:03.620Z,3.80
2023-02-04T22:09:32.308Z,4.10
2023-02-04T22:12:02.836Z,3.20
2023-02-04T22:14:50.060Z,2.80
2023-02-04T22:17:20.595Z,2.50
2023-02-04T22:22:18.469Z,2.40
2023-02-04T22:24:48.221Z,2.30
2023-02-04T22:27:16.864Z,2.70
2023-02-04T22:29:46.407Z,2.40
2023-02-04T22:32:15.159Z,2.30
2023-02-04T22:34:44.051Z,2.40
2023-02-04T22:37:13.140Z,2.20
2023-02-04T22:39:41.730Z,2.40
2023-02-04T22:42:10.414Z,2.10
2023-02-04T22:44:39.307Z,2.40
2023-02-04T22:47:08.412Z,2.20
2023-02-04T22:49:37.604Z,2.30
2023-02-04T22:52:07.321Z,2.20
2023-02-04T22:54:38.038Z,2.50
2023-02-04T22:57:07.460Z,2.50
2023-02-04T22:59:36.442Z,3.00
2023-02-04T23:02:05.331Z,2.40
2023-02-04T23:04:34.423Z,2.50
2023-02-04T23:07:06.192Z,2.10
2023-02-04T23:09:35.584Z,2.00
2023-02-04T23:12:13.793Z,2.30
2023-02-04T23:14:47.805Z,2.20
2023-02-04T23:17:18.229Z,2.20
2023-02-04T23:19:47.414Z,2.10
2023-02-04T23:22:17.288Z,2.60
2023-02-04T23:24:45.920Z,2.60
2023-02-04T23:27:14.697Z,3.70
2023-02-04T23:29:43.585Z,5.10
2023-02-04T23:32:12.482Z,2.20
2023-02-04T23:34:41.780Z,3.30
2023-02-04T23:37:10.878Z,2.40
2023-02-04T23:39:39.977Z,2.70
2023-02-04T23:42:09.178Z,2.30
2023-02-04T23:44:38.074Z,2.40
2023-02-04T23:47:08.712Z,2.70
2023-02-04T23:49:37.797Z,3.00
2023-02-04T23:52:10.681Z,2.40
2023-02-04T23:54:40.383Z,2.70
2023-02-04T23:57:11.565Z,3.40
2023-02-04T23:59:42.454Z,3.10
